Time;durP1;ratioP1;P1;durP2;ratioP2;P2;SDS_P1;SDS_P2;PMS_P1;PMS_P2;Temp;Humidity;BMP_temperature;BMP_pressure;BME280_temperature;BME280_humidity;BME280_pressure;Samples;Min_cycle;Max_cycle;Signal;HPM_P1;HPM_P2
2021/12/31 14:35:20;;;;;;;17.42;13.20;;;;;;;;;;6164290;22;20019;-84
2021/12/31 14:37:45;;;;;;;13.82;11.23;;;;;;;;;;6246964;23;20020;-83
2021/12/31 14:40:18;;;;;;;16.00;11.45;;;;;;;;;;6220550;23;20091;-84
2021/12/31 14:42:44;;;;;;;14.27;11.10;;;;;;;;;;6247407;23;20019;-85
2021/12/31 14:45:10;;;;;;;13.35;11.48;;;;;;;;;;6220403;23;20004;-83
2021/12/31 14:47:42;;;;;;;13.50;10.18;;;;;;;;;;6220417;23;20008;-83
2021/12/31 14:50:10;;;;;;;11.23;8.32;;;;;;;;;;6220286;23;20008;-83
2021/12/31 14:52:37;;;;;;;11.90;8.65;;;;;;;;;;6247347;23;20004;-84
2021/12/31 14:55:07;;;;;;;9.20;7.45;;;;;;;;;;6247279;23;20062;-84
2021/12/31 14:57:33;;;;;;;6.50;5.75;;;;;;;;;;6247299;23;20004;-84
2021/12/31 14:59:59;;;;;;;10.85;8.25;;;;;;;;;;6247172;23;20019;-84
2021/12/31 15:02:24;;;;;;;9.38;7.55;;;;;;;;;;6247522;23;20000;-83
2021/12/31 15:04:50;;;;;;;10.43;6.80;;;;;;;;;;6220522;23;20323;-84
2021/12/31 15:07:16;;;;;;;9.52;7.07;;;;;;;;;;6220232;23;20027;-86
2021/12/31 15:09:45;;;;;;;8.85;6.40;;;;;;;;;;6219634;23;20004;-85
2021/12/31 15:12:12;;;;;;;7.97;6.50;;;;;;;;;;6246983;23;20032;-84
2021/12/31 15:14:38;;;;;;;7.40;6.45;;;;;;;;;;6247271;23;20229;-85
2021/12/31 15:17:04;;;;;;;6.97;6.28;;;;;;;;;;6220622;23;20453;-82
2021/12/31 15:19:30;;;;;;;8.73;6.47;;;;;;;;;;6246774;23;19996;-83
2021/12/31 15:21:55;;;;;;;10.32;7.95;;;;;;;;;;6246637;23;20012;-84
2021/12/31 15:24:22;;;;;;;9.27;7.30;;;;;;;;;;6246952;23;20008;-83
2021/12/31 15:26:50;;;;;;;14.57;11.70;;;;;;;;;;6220027;23;20339;-84
2021/12/31 15:29:15;;;;;;;13.35;10.23;;;;;;;;;;6220101;23;20368;-84
2021/12/31 15:31:42;;;;;;;10.63;9.38;;;;;;;;;;6219695;23;20046;-88
2021/12/31 15:34:08;;;;;;;9.25;7.80;;;;;;;;;;6247087;23;20004;-84
2021/12/31 15:36:33;;;;;;;19.20;14.43;;;;;;;;;;6220009;23;20038;-84
2021/12/31 15:38:59;;;;;;;21.13;16.20;;;;;;;;;;6219638;23;20023;-85
2021/12/31 15:41:24;;;;;;;22.17;15.88;;;;;;;;;;6220084;23;20020;-84
2021/12/31 15:43:50;;;;;;;21.80;16.63;;;;;;;;;;6246811;23;20004;-85
2021/12/31 16:53:08;;;;;;;15.63;12.20;;;;;;;;;;6242613;22;20091;-82
2021/12/31 16:55:34;;;;;;;16.40;11.65;;;;;;;;;;6246793;23;20015;-87
2021/12/31 16:58:00;;;;;;;19.50;14.95;;;;;;;;;;6219631;23;20008;-85
2021/12/31 17:00:25;;;;;;;17.05;13.93;;;;;;;;;;6218631;23;20004;-83
2021/12/31 17:02:51;;;;;;;15.13;10.63;;;;;;;;;;6245786;23;20304;-87
2021/12/31 17:05:17;;;;;;;13.35;11.02;;;;;;;;;;6220434;23;20435;-89
2021/12/31 17:07:42;;;;;;;18.48;14.30;;;;;;;;;;6221049;23;20101;-89
2021/12/31 17:10:08;;;;;;;22.48;16.40;;;;;;;;;;6221834;23;19997;-88
2021/12/31 17:12:34;;;;;;;24.27;15.80;;;;;;;;;;6221790;23;19999;-89
2021/12/31 17:14:59;;;;;;;17.60;14.77;;;;;;;;;;6248389;23;19999;-87
2021/12/31 17:17:25;;;;;;;18.13;14.77;;;;;;;;;;6221761;23;20036;-88
2021/12/31 17:19:50;;;;;;;20.15;15.75;;;;;;;;;;6221483;23;20008;-88
2021/12/31 17:22:16;;;;;;;23.40;14.63;;;;;;;;;;6248537;23;20000;-88
2021/12/31 17:24:41;;;;;;;22.48;17.02;;;;;;;;;;6221653;23;20012;-88
2021/12/31 17:27:06;;;;;;;24.17;18.98;;;;;;;;;;6222012;23;20003;-87
2021/12/31 17:29:32;;;;;;;23.55;18.83;;;;;;;;;;6221591;23;20000;-88
2021/12/31 17:31:57;;;;;;;15.43;13.02;;;;;;;;;;6248343;23;20015;-88
2021/12/31 17:34:23;;;;;;;19.75;14.45;;;;;;;;;;6248160;23;20383;-86
2021/12/31 17:36:48;;;;;;;22.52;16.85;;;;;;;;;;6221494;23;20008;-86
2021/12/31 17:39:14;;;;;;;21.88;17.48;;;;;;;;;;6248280;23;20047;-86
2021/12/31 17:41:39;;;;;;;21.70;17.08;;;;;;;;;;6248351;23;20405;-87
2021/12/31 17:44:05;;;;;;;22.45;17.65;;;;;;;;;;6221697;23;20034;-87
2021/12/31 17:46:31;;;;;;;24.45;17.95;;;;;;;;;;6221230;23;20053;-88
2021/12/31 17:48:58;;;;;;;20.92;15.77;;;;;;;;;;6248168;23;20055;-86
2021/12/31 17:51:24;;;;;;;15.13;10.35;;;;;;;;;;6221166;23;20118;-88
2021/12/31 17:53:50;;;;;;;13.70;11.63;;;;;;;;;;6248002;23;20040;-89
2021/12/31 17:56:15;;;;;;;13.10;10.85;;;;;;;;;;6220958;23;20004;-88
2021/12/31 17:58:40;;;;;;;19.15;13.82;;;;;;;;;;6221377;23;20362;-88
2021/12/31 18:01:06;;;;;;;22.98;17.75;;;;;;;;;;6221989;23;20008;-88
2021/12/31 18:03:31;;;;;;;16.00;13.98;;;;;;;;;;6223153;23;20419;-87
2021/12/31 18:05:57;;;;;;;23.67;17.55;;;;;;;;;;6223285;23;20011;-89
2021/12/31 18:08:23;;;;;;;16.65;13.75;;;;;;;;;;6248616;23;20004;-88
2021/12/31 18:10:48;;;;;;;21.27;16.45;;;;;;;;;;6247808;23;20050;-88
2021/12/31 18:13:14;;;;;;;23.15;16.83;;;;;;;;;;6221160;23;20000;-88
2021/12/31 18:15:40;;;;;;;24.88;18.88;;;;;;;;;;6247917;23;20075;-88
2021/12/31 18:18:06;;;;;;;24.92;19.45;;;;;;;;;;6248298;23;20023;-88
2021/12/31 18:20:33;;;;;;;30.48;20.85;;;;;;;;;;6220847;23;20502;-89
2021/12/31 18:22:59;;;;;;;25.88;19.23;;;;;;;;;;6221238;23;20009;-88
2021/12/31 18:25:24;;;;;;;23.13;18.42;;;;;;;;;;6221303;23;20050;-87
2021/12/31 18:27:50;;;;;;;23.30;18.23;;;;;;;;;;6221253;23;20434;-88
2021/12/31 18:30:15;;;;;;;23.33;17.08;;;;;;;;;;6247842;23;19997;-87
2021/12/31 18:32:41;;;;;;;18.60;15.05;;;;;;;;;;6221305;23;20004;-88
2021/12/31 18:35:07;;;;;;;24.95;18.92;;;;;;;;;;6221221;23;20016;-88
2021/12/31 18:37:34;;;;;;;22.73;16.92;;;;;;;;;;6221423;23;20004;-91
2021/12/31 18:39:59;;;;;;;25.42;16.45;;;;;;;;;;6221686;23;20493;-90
2021/12/31 18:42:27;;;;;;;23.73;18.00;;;;;;;;;;6248188;23;20034;-92
2021/12/31 18:44:52;;;;;;;19.48;13.18;;;;;;;;;;6222275;23;20047;-89
2021/12/31 18:49:50;;;;;;;18.77;15.15;;;;;;;;;;6254440;23;20008;-88
2021/12/31 18:52:16;;;;;;;21.73;14.68;;;;;;;;;;6221456;23;20031;-88
2021/12/31 18:54:41;;;;;;;18.63;14.05;;;;;;;;;;6248061;23;20439;-89
2021/12/31 18:57:07;;;;;;;18.55;13.20;;;;;;;;;;6248247;23;20000;-91
2021/12/31 18:59:32;;;;;;;22.02;15.50;;;;;;;;;;6221471;23;20008;-92
2021/12/31 19:01:57;;;;;;;26.25;15.63;;;;;;;;;;6221350;23;20043;-93
2021/12/31 19:04:23;;;;;;;23.83;18.90;;;;;;;;;;6247860;23;20004;-92
2021/12/31 19:06:48;;;;;;;19.40;15.45;;;;;;;;;;6221298;23;20008;-89
2021/12/31 19:09:14;;;;;;;30.67;22.08;;;;;;;;;;6247814;23;20004;-89
2021/12/31 19:11:39;;;;;;;31.35;24.90;;;;;;;;;;6221102;23;20435;-88
2021/12/31 19:14:05;;;;;;;27.08;20.75;;;;;;;;;;6247609;23;20007;-87
2021/12/31 19:16:30;;;;;;;27.38;20.27;;;;;;;;;;6221002;23;20004;-89
2021/12/31 19:18:56;;;;;;;22.77;18.08;;;;;;;;;;6220814;23;20039;-89
2021/12/31 19:21:21;;;;;;;22.00;17.38;;;;;;;;;;6247847;23;20004;-88
2021/12/31 19:23:47;;;;;;;22.20;18.23;;;;;;;;;;6221085;23;20066;-92
2021/12/31 19:26:12;;;;;;;22.33;17.20;;;;;;;;;;6221137;23;20004;-89
2021/12/31 19:28:38;;;;;;;27.73;20.30;;;;;;;;;;6247852;23;20004;-91
2021/12/31 19:31:05;;;;;;;21.38;17.73;;;;;;;;;;6220738;23;20011;-88
2021/12/31 19:33:30;;;;;;;21.77;16.15;;;;;;;;;;6247607;23;20010;-88
2021/12/31 19:35:55;;;;;;;37.58;25.75;;;;;;;;;;6247354;23;20032;-89
2021/12/31 19:38:21;;;;;;;28.08;20.35;;;;;;;;;;6220630;23;20086;-89
2021/12/31 19:40:47;;;;;;;25.88;19.63;;;;;;;;;;6247359;23;20011;-89
2021/12/31 19:43:13;;;;;;;27.83;20.17;;;;;;;;;;6220657;23;20011;-88
2021/12/31 19:45:39;;;;;;;27.08;19.38;;;;;;;;;;6247296;23;20008;-89
2021/12/31 19:48:09;;;;;;;26.15;19.05;;;;;;;;;;6247508;23;20034;-89
2021/12/31 19:50:36;;;;;;;26.38;18.33;;;;;;;;;;6221276;23;20019;-90
2021/12/31 19:53:05;;;;;;;31.17;22.67;;;;;;;;;;6220710;23;20004;-88
2021/12/31 19:55:34;;;;;;;40.90;27.58;;;;;;;;;;6247571;23;20008;-88
